sensor_id;sensor_type;location;lat;lon;timestamp;P1;durP1;ratioP1;P2;durP2;ratioP2
83595;SDS011;73564;45.026;38.952;2024-03-23T00:54:42;16.85;;;6.30;;
83595;SDS011;73564;45.026;38.952;2024-03-23T00:57:08;11.98;;;4.35;;
83595;SDS011;73564;45.026;38.952;2024-03-23T00:59:33;17.73;;;4.60;;
83595;SDS011;73564;45.026;38.952;2024-03-23T01:01:59;14.10;;;5.93;;
83595;SDS011;73564;45.026;38.952;2024-03-23T01:04:25;12.50;;;4.38;;
83595;SDS011;73564;45.026;38.952;2024-03-23T01:06:50;12.45;;;5.13;;
83595;SDS011;73564;45.026;38.952;2024-03-23T01:09:16;17.25;;;5.32;;
83595;SDS011;73564;45.026;38.952;2024-03-23T01:11:42;13.50;;;4.38;;
83595;SDS011;73564;45.026;38.952;2024-03-23T01:14:08;14.57;;;5.72;;
83595;SDS011;73564;45.026;38.952;2024-03-23T01:16:33;13.95;;;5.03;;
83595;SDS011;73564;45.026;38.952;2024-03-23T01:18:59;15.95;;;5.60;;
83595;SDS011;73564;45.026;38.952;2024-03-23T01:21:25;10.80;;;3.45;;
83595;SDS011;73564;45.026;38.952;2024-03-23T01:23:51;15.02;;;4.93;;
83595;SDS011;73564;45.026;38.952;2024-03-23T01:26:16;9.98;;;4.20;;
83595;SDS011;73564;45.026;38.952;2024-03-23T01:28:42;18.55;;;5.97;;
83595;SDS011;73564;45.026;38.952;2024-03-23T01:31:08;14.90;;;5.75;;
83595;SDS011;73564;45.026;38.952;2024-03-23T01:33:33;14.15;;;4.45;;
83595;SDS011;73564;45.026;38.952;2024-03-23T01:35:59;12.52;;;4.28;;
83595;SDS011;73564;45.026;38.952;2024-03-23T01:38:25;13.13;;;4.15;;
83595;SDS011;73564;45.026;38.952;2024-03-23T01:40:56;14.98;;;5.35;;
83595;SDS011;73564;45.026;38.952;2024-03-23T01:43:22;16.38;;;4.68;;
83595;SDS011;73564;45.026;38.952;2024-03-23T01:45:48;8.90;;;4.20;;
83595;SDS011;73564;45.026;38.952;2024-03-23T01:48:14;9.35;;;3.47;;
83595;SDS011;73564;45.026;38.952;2024-03-23T01:50:40;13.32;;;5.90;;
83595;SDS011;73564;45.026;38.952;2024-03-23T01:53:06;13.10;;;5.18;;
83595;SDS011;73564;45.026;38.952;2024-03-23T01:55:32;16.85;;;7.00;;
83595;SDS011;73564;45.026;38.952;2024-03-23T01:57:59;15.90;;;5.07;;
83595;SDS011;73564;45.026;38.952;2024-03-23T02:00:24;14.68;;;5.45;;
83595;SDS011;73564;45.026;38.952;2024-03-23T02:02:52;14.05;;;5.47;;
83595;SDS011;73564;45.026;38.952;2024-03-23T02:05:17;13.35;;;5.50;;
83595;SDS011;73564;45.026;38.952;2024-03-23T02:07:43;13.73;;;4.50;;
83595;SDS011;73564;45.026;38.952;2024-03-23T02:10:10;19.15;;;6.82;;
83595;SDS011;73564;45.026;38.952;2024-03-23T02:12:38;14.45;;;4.97;;
83595;SDS011;73564;45.026;38.952;2024-03-23T02:15:04;20.65;;;6.47;;
83595;SDS011;73564;45.026;38.952;2024-03-23T02:17:31;13.98;;;4.93;;
83595;SDS011;73564;45.026;38.952;2024-03-23T02:19:58;10.43;;;4.00;;
83595;SDS011;73564;45.026;38.952;2024-03-23T02:22:24;16.30;;;4.65;;
83595;SDS011;73564;45.026;38.952;2024-03-23T02:24:50;19.27;;;6.07;;
83595;SDS011;73564;45.026;38.952;2024-03-23T02:27:15;15.85;;;4.63;;
83595;SDS011;73564;45.026;38.952;2024-03-23T02:29:41;13.05;;;4.22;;
83595;SDS011;73564;45.026;38.952;2024-03-23T02:32:07;14.52;;;5.10;;
83595;SDS011;73564;45.026;38.952;2024-03-23T02:34:34;15.00;;;5.07;;
83595;SDS011;73564;45.026;38.952;2024-03-23T02:37:00;11.93;;;4.88;;
83595;SDS011;73564;45.026;38.952;2024-03-23T02:39:26;10.05;;;3.25;;
83595;SDS011;73564;45.026;38.952;2024-03-23T02:41:52;16.27;;;5.60;;
83595;SDS011;73564;45.026;38.952;2024-03-23T02:44:17;15.27;;;5.40;;
83595;SDS011;73564;45.026;38.952;2024-03-23T02:46:43;10.38;;;4.82;;
83595;SDS011;73564;45.026;38.952;2024-03-23T02:49:09;13.95;;;3.72;;
83595;SDS011;73564;45.026;38.952;2024-03-23T02:51:35;11.50;;;4.43;;
83595;SDS011;73564;45.026;38.952;2024-03-23T02:54:00;13.40;;;4.97;;
83595;SDS011;73564;45.026;38.952;2024-03-23T02:56:26;11.73;;;4.72;;
83595;SDS011;73564;45.026;38.952;2024-03-23T02:58:52;8.35;;;3.38;;
83595;SDS011;73564;45.026;38.952;2024-03-23T03:01:18;18.63;;;6.88;;
83595;SDS011;73564;45.026;38.952;2024-03-23T03:03:43;11.05;;;4.80;;
83595;SDS011;73564;45.026;38.952;2024-03-23T03:06:09;12.75;;;4.53;;
83595;SDS011;73564;45.026;38.952;2024-03-23T03:08:35;16.27;;;5.85;;
83595;SDS011;73564;45.026;38.952;2024-03-23T03:11:01;15.48;;;5.53;;
83595;SDS011;73564;45.026;38.952;2024-03-23T03:13:27;13.40;;;4.22;;
83595;SDS011;73564;45.026;38.952;2024-03-23T03:15:53;18.77;;;5.97;;
83595;SDS011;73564;45.026;38.952;2024-03-23T03:18:18;10.63;;;3.80;;
83595;SDS011;73564;45.026;38.952;2024-03-23T03:20:44;14.50;;;5.88;;
83595;SDS011;73564;45.026;38.952;2024-03-23T03:23:10;12.32;;;4.43;;
83595;SDS011;73564;45.026;38.952;2024-03-23T03:25:36;17.60;;;6.45;;
83595;SDS011;73564;45.026;38.952;2024-03-23T03:28:02;12.40;;;5.53;;
83595;SDS011;73564;45.026;38.952;2024-03-23T03:30:29;16.50;;;5.13;;
83595;SDS011;73564;45.026;38.952;2024-03-23T03:32:55;13.18;;;5.13;;
83595;SDS011;73564;45.026;38.952;2024-03-23T03:35:20;10.15;;;4.97;;
83595;SDS011;73564;45.026;38.952;2024-03-23T03:37:46;14.38;;;5.45;;
83595;SDS011;73564;45.026;38.952;2024-03-23T03:40:12;16.42;;;5.03;;
83595;SDS011;73564;45.026;38.952;2024-03-23T03:42:40;12.98;;;5.40;;
83595;SDS011;73564;45.026;38.952;2024-03-23T03:45:06;11.95;;;4.68;;
83595;SDS011;73564;45.026;38.952;2024-03-23T03:47:32;12.98;;;5.30;;
83595;SDS011;73564;45.026;38.952;2024-03-23T03:49:58;11.88;;;3.78;;
83595;SDS011;73564;45.026;38.952;2024-03-23T03:52:24;13.00;;;5.25;;
83595;SDS011;73564;45.026;38.952;2024-03-23T03:54:50;8.95;;;3.17;;
83595;SDS011;73564;45.026;38.952;2024-03-23T03:57:16;10.98;;;5.05;;
83595;SDS011;73564;45.026;38.952;2024-03-23T03:59:42;17.73;;;6.30;;
83595;SDS011;73564;45.026;38.952;2024-03-23T04:02:07;13.23;;;4.28;;
83595;SDS011;73564;45.026;38.952;2024-03-23T04:04:33;22.52;;;7.53;;
83595;SDS011;73564;45.026;38.952;2024-03-23T04:06:59;20.05;;;6.80;;
83595;SDS011;73564;45.026;38.952;2024-03-23T04:09:25;16.70;;;6.45;;
83595;SDS011;73564;45.026;38.952;2024-03-23T04:11:51;17.95;;;6.32;;
83595;SDS011;73564;45.026;38.952;2024-03-23T04:14:16;14.95;;;4.80;;
83595;SDS011;73564;45.026;38.952;2024-03-23T04:16:42;17.75;;;6.00;;
83595;SDS011;73564;45.026;38.952;2024-03-23T04:19:08;13.40;;;4.93;;
83595;SDS011;73564;45.026;38.952;2024-03-23T04:21:34;13.07;;;5.13;;
83595;SDS011;73564;45.026;38.952;2024-03-23T04:24:01;16.13;;;4.82;;
83595;SDS011;73564;45.026;38.952;2024-03-23T04:26:26;18.60;;;5.50;;
83595;SDS011;73564;45.026;38.952;2024-03-23T04:28:53;10.32;;;4.60;;
83595;SDS011;73564;45.026;38.952;2024-03-23T04:31:19;12.15;;;4.70;;
83595;SDS011;73564;45.026;38.952;2024-03-23T04:33:44;10.85;;;4.47;;
83595;SDS011;73564;45.026;38.952;2024-03-23T04:36:10;15.93;;;5.03;;
83595;SDS011;73564;45.026;38.952;2024-03-23T04:38:36;13.18;;;4.75;;
83595;SDS011;73564;45.026;38.952;2024-03-23T04:41:02;15.93;;;4.88;;
83595;SDS011;73564;45.026;38.952;2024-03-23T04:43:28;15.00;;;5.60;;
83595;SDS011;73564;45.026;38.952;2024-03-23T04:45:54;9.75;;;4.63;;
83595;SDS011;73564;45.026;38.952;2024-03-23T04:48:22;16.20;;;5.35;;
83595;SDS011;73564;45.026;38.952;2024-03-23T04:50:49;14.23;;;5.13;;
83595;SDS011;73564;45.026;38.952;2024-03-23T04:53:19;16.25;;;5.00;;
83595;SDS011;73564;45.026;38.952;2024-03-23T04:55:45;16.30;;;5.60;;
83595;SDS011;73564;45.026;38.952;2024-03-23T04:58:10;17.33;;;6.40;;
83595;SDS011;73564;45.026;38.952;2024-03-23T05:00:36;14.45;;;5.28;;
83595;SDS011;73564;45.026;38.952;2024-03-23T05:03:02;14.05;;;5.50;;
83595;SDS011;73564;45.026;38.952;2024-03-23T05:05:29;11.55;;;5.25;;
83595;SDS011;73564;45.026;38.952;2024-03-23T05:07:55;11.23;;;3.55;;
83595;SDS011;73564;45.026;38.952;2024-03-23T05:10:21;9.00;;;4.43;;
83595;SDS011;73564;45.026;38.952;2024-03-23T05:12:46;10.05;;;3.97;;
83595;SDS011;73564;45.026;38.952;2024-03-23T05:15:12;12.32;;;4.35;;
83595;SDS011;73564;45.026;38.952;2024-03-23T05:17:38;9.43;;;4.07;;
83595;SDS011;73564;45.026;38.952;2024-03-23T05:20:04;13.85;;;4.55;;
83595;SDS011;73564;45.026;38.952;2024-03-23T05:22:37;19.27;;;4.63;;
83595;SDS011;73564;45.026;38.952;2024-03-23T05:25:03;8.43;;;3.65;;
83595;SDS011;73564;45.026;38.952;2024-03-23T05:27:31;14.68;;;5.75;;
83595;SDS011;73564;45.026;38.952;2024-03-23T05:29:58;14.48;;;4.78;;
83595;SDS011;73564;45.026;38.952;2024-03-23T05:32:24;9.60;;;3.95;;
83595;SDS011;73564;45.026;38.952;2024-03-23T05:34:50;11.13;;;3.88;;
83595;SDS011;73564;45.026;38.952;2024-03-23T05:37:21;11.93;;;4.35;;
83595;SDS011;73564;45.026;38.952;2024-03-23T05:39:47;10.88;;;3.92;;
83595;SDS011;73564;45.026;38.952;2024-03-23T05:42:18;9.80;;;4.35;;
83595;SDS011;73564;45.026;38.952;2024-03-23T05:44:44;10.48;;;3.47;;
83595;SDS011;73564;45.026;38.952;2024-03-23T05:47:10;8.13;;;4.10;;
83595;SDS011;73564;45.026;38.952;2024-03-23T05:49:38;13.25;;;4.65;;
83595;SDS011;73564;45.026;38.952;2024-03-23T05:52:04;15.70;;;5.28;;
83595;SDS011;73564;45.026;38.952;2024-03-23T05:54:30;14.80;;;4.85;;
83595;SDS011;73564;45.026;38.952;2024-03-23T05:56:55;16.15;;;5.35;;
83595;SDS011;73564;45.026;38.952;2024-03-23T05:59:21;11.88;;;4.53;;
83595;SDS011;73564;45.026;38.952;2024-03-23T06:01:47;11.75;;;4.50;;
83595;SDS011;73564;45.026;38.952;2024-03-23T06:04:13;11.18;;;4.43;;
83595;SDS011;73564;45.026;38.952;2024-03-23T06:06:39;12.05;;;5.45;;
83595;SDS011;73564;45.026;38.952;2024-03-23T06:09:05;11.35;;;3.63;;
83595;SDS011;73564;45.026;38.952;2024-03-23T06:11:30;8.05;;;3.33;;
83595;SDS011;73564;45.026;38.952;2024-03-23T06:13:56;13.45;;;4.28;;
83595;SDS011;73564;45.026;38.952;2024-03-23T06:16:22;10.63;;;3.83;;
83595;SDS011;73564;45.026;38.952;2024-03-23T06:18:52;8.77;;;3.15;;
83595;SDS011;73564;45.026;38.952;2024-03-23T06:21:18;8.63;;;2.83;;
83595;SDS011;73564;45.026;38.952;2024-03-23T06:23:44;7.68;;;3.25;;
83595;SDS011;73564;45.026;38.952;2024-03-23T06:26:19;7.68;;;3.58;;
83595;SDS011;73564;45.026;38.952;2024-03-23T06:28:46;5.93;;;2.67;;
83595;SDS011;73564;45.026;38.952;2024-03-23T06:31:14;11.43;;;4.20;;
83595;SDS011;73564;45.026;38.952;2024-03-23T06:33:40;15.57;;;4.50;;
83595;SDS011;73564;45.026;38.952;2024-03-23T06:36:09;11.13;;;4.45;;
83595;SDS011;73564;45.026;38.952;2024-03-23T06:38:36;7.90;;;4.18;;
83595;SDS011;73564;45.026;38.952;2024-03-23T06:43:29;10.48;;;3.20;;
83595;SDS011;73564;45.026;38.952;2024-03-23T06:45:55;8.23;;;2.90;;
83595;SDS011;73564;45.026;38.952;2024-03-23T06:48:21;9.27;;;3.50;;
83595;SDS011;73564;45.026;38.952;2024-03-23T06:50:47;10.20;;;3.75;;
83595;SDS011;73564;45.026;38.952;2024-03-23T06:53:13;10.70;;;3.40;;
83595;SDS011;73564;45.026;38.952;2024-03-23T06:55:39;9.10;;;2.95;;
83595;SDS011;73564;45.026;38.952;2024-03-23T06:58:06;11.55;;;4.68;;
83595;SDS011;73564;45.026;38.952;2024-03-23T07:00:32;10.02;;;4.30;;
83595;SDS011;73564;45.026;38.952;2024-03-23T07:02:58;8.77;;;3.22;;
83595;SDS011;73564;45.026;38.952;2024-03-23T07:05:24;7.15;;;3.33;;
83595;SDS011;73564;45.026;38.952;2024-03-23T07:07:50;10.20;;;3.88;;
83595;SDS011;73564;45.026;38.952;2024-03-23T07:10:16;10.23;;;3.90;;
83595;SDS011;73564;45.026;38.952;2024-03-23T07:12:42;9.18;;;3.97;;
83595;SDS011;73564;45.026;38.952;2024-03-23T07:15:08;6.85;;;3.72;;
83595;SDS011;73564;45.026;38.952;2024-03-23T07:17:34;12.35;;;4.13;;
83595;SDS011;73564;45.026;38.952;2024-03-23T07:20:03;9.73;;;4.40;;
83595;SDS011;73564;45.026;38.952;2024-03-23T07:22:30;6.80;;;3.03;;
83595;SDS011;73564;45.026;38.952;2024-03-23T07:27:25;8.90;;;3.00;;
83595;SDS011;73564;45.026;38.952;2024-03-23T07:29:51;9.25;;;3.90;;
83595;SDS011;73564;45.026;38.952;2024-03-23T07:32:17;10.88;;;4.22;;
83595;SDS011;73564;45.026;38.952;2024-03-23T07:34:42;8.05;;;3.50;;
83595;SDS011;73564;45.026;38.952;2024-03-23T07:37:10;13.05;;;4.47;;
83595;SDS011;73564;45.026;38.952;2024-03-23T07:39:36;9.23;;;3.35;;
83595;SDS011;73564;45.026;38.952;2024-03-23T07:42:02;12.63;;;4.47;;
83595;SDS011;73564;45.026;38.952;2024-03-23T07:44:27;8.00;;;3.55;;
83595;SDS011;73564;45.026;38.952;2024-03-23T07:46:53;9.68;;;3.63;;
83595;SDS011;73564;45.026;38.952;2024-03-23T07:49:19;11.45;;;3.40;;
83595;SDS011;73564;45.026;38.952;2024-03-23T07:51:44;10.98;;;3.83;;
83595;SDS011;73564;45.026;38.952;2024-03-23T07:54:10;10.80;;;4.20;;
83595;SDS011;73564;45.026;38.952;2024-03-23T07:56:36;7.20;;;3.10;;
83595;SDS011;73564;45.026;38.952;2024-03-23T07:59:02;10.13;;;3.38;;
83595;SDS011;73564;45.026;38.952;2024-03-23T08:01:28;10.80;;;4.03;;
83595;SDS011;73564;45.026;38.952;2024-03-23T08:03:54;8.95;;;3.58;;
83595;SDS011;73564;45.026;38.952;2024-03-23T08:06:21;8.98;;;3.38;;
83595;SDS011;73564;45.026;38.952;2024-03-23T08:08:53;7.68;;;3.47;;
83595;SDS011;73564;45.026;38.952;2024-03-23T08:11:27;9.60;;;3.65;;
83595;SDS011;73564;45.026;38.952;2024-03-23T08:13:57;12.23;;;3.88;;
83595;SDS011;73564;45.026;38.952;2024-03-23T08:16:23;8.85;;;3.88;;
83595;SDS011;73564;45.026;38.952;2024-03-23T08:18:52;6.75;;;3.25;;
83595;SDS011;73564;45.026;38.952;2024-03-23T08:21:20;7.80;;;3.35;;
83595;SDS011;73564;45.026;38.952;2024-03-23T08:23:46;7.13;;;3.05;;
83595;SDS011;73564;45.026;38.952;2024-03-23T08:26:12;10.65;;;3.15;;
83595;SDS011;73564;45.026;38.952;2024-03-23T08:28:40;7.95;;;3.13;;
83595;SDS011;73564;45.026;38.952;2024-03-23T08:31:09;9.30;;;3.97;;
83595;SDS011;73564;45.026;38.952;2024-03-23T08:33:35;7.53;;;3.53;;
83595;SDS011;73564;45.026;38.952;2024-03-23T08:36:02;10.13;;;4.13;;
83595;SDS011;73564;45.026;38.952;2024-03-23T08:38:30;8.27;;;3.25;;
83595;SDS011;73564;45.026;38.952;2024-03-23T08:40:56;8.07;;;3.47;;
83595;SDS011;73564;45.026;38.952;2024-03-23T08:43:29;6.68;;;3.05;;
83595;SDS011;73564;45.026;38.952;2024-03-23T08:46:08;8.82;;;3.45;;
83595;SDS011;73564;45.026;38.952;2024-03-23T08:48:35;9.82;;;3.95;;
83595;SDS011;73564;45.026;38.952;2024-03-23T08:51:09;8.30;;;3.33;;
83595;SDS011;73564;45.026;38.952;2024-03-23T08:53:36;9.77;;;3.50;;
83595;SDS011;73564;45.026;38.952;2024-03-23T08:56:02;9.65;;;3.47;;
83595;SDS011;73564;45.026;38.952;2024-03-23T08:58:30;7.05;;;3.13;;
83595;SDS011;73564;45.026;38.952;2024-03-23T09:01:02;7.20;;;3.03;;
83595;SDS011;73564;45.026;38.952;2024-03-23T09:03:32;6.95;;;2.78;;
83595;SDS011;73564;45.026;38.952;2024-03-23T09:05:59;7.22;;;3.13;;
83595;SDS011;73564;45.026;38.952;2024-03-23T09:08:25;11.80;;;3.78;;
83595;SDS011;73564;45.026;38.952;2024-03-23T09:10:52;7.95;;;2.83;;
83595;SDS011;73564;45.026;38.952;2024-03-23T09:13:18;10.95;;;2.92;;
83595;SDS011;73564;45.026;38.952;2024-03-23T09:15:47;12.60;;;4.55;;
83595;SDS011;73564;45.026;38.952;2024-03-23T09:18:14;6.68;;;2.92;;
83595;SDS011;73564;45.026;38.952;2024-03-23T09:20:40;8.25;;;3.20;;
83595;SDS011;73564;45.026;38.952;2024-03-23T09:23:06;6.25;;;2.38;;
83595;SDS011;73564;45.026;38.952;2024-03-23T09:25:31;9.90;;;2.90;;
83595;SDS011;73564;45.026;38.952;2024-03-23T09:27:58;7.57;;;3.20;;
83595;SDS011;73564;45.026;38.952;2024-03-23T09:30:23;9.05;;;2.95;;
83595;SDS011;73564;45.026;38.952;2024-03-23T09:32:49;9.60;;;3.08;;
83595;SDS011;73564;45.026;38.952;2024-03-23T09:35:15;8.10;;;2.97;;
83595;SDS011;73564;45.026;38.952;2024-03-23T09:37:40;8.95;;;3.63;;
83595;SDS011;73564;45.026;38.952;2024-03-23T09:40:09;9.30;;;3.47;;
83595;SDS011;73564;45.026;38.952;2024-03-23T09:42:39;6.53;;;2.83;;
83595;SDS011;73564;45.026;38.952;2024-03-23T09:45:06;8.73;;;3.20;;
83595;SDS011;73564;45.026;38.952;2024-03-23T09:47:38;6.20;;;2.45;;
83595;SDS011;73564;45.026;38.952;2024-03-23T09:50:04;5.28;;;2.30;;
83595;SDS011;73564;45.026;38.952;2024-03-23T09:52:31;4.88;;;1.88;;
83595;SDS011;73564;45.026;38.952;2024-03-23T09:54:57;7.68;;;2.75;;
83595;SDS011;73564;45.026;38.952;2024-03-23T09:57:22;7.43;;;2.90;;
83595;SDS011;73564;45.026;38.952;2024-03-23T09:59:48;6.32;;;2.50;;
83595;SDS011;73564;45.026;38.952;2024-03-23T10:02:15;6.25;;;2.42;;
83595;SDS011;73564;45.026;38.952;2024-03-23T10:04:42;7.13;;;2.78;;
83595;SDS011;73564;45.026;38.952;2024-03-23T10:07:17;6.70;;;2.30;;
83595;SDS011;73564;45.026;38.952;2024-03-23T10:09:44;6.47;;;2.38;;
83595;SDS011;73564;45.026;38.952;2024-03-23T10:12:10;6.47;;;2.47;;
83595;SDS011;73564;45.026;38.952;2024-03-23T10:14:40;5.45;;;2.60;;
83595;SDS011;73564;45.026;38.952;2024-03-23T10:19:51;5.88;;;2.28;;
83595;SDS011;73564;45.026;38.952;2024-03-23T10:22:21;5.65;;;1.88;;
83595;SDS011;73564;45.026;38.952;2024-03-23T10:24:48;4.25;;;2.28;;
83595;SDS011;73564;45.026;38.952;2024-03-23T10:27:18;5.43;;;2.38;;
83595;SDS011;73564;45.026;38.952;2024-03-23T10:29:48;6.30;;;2.55;;
83595;SDS011;73564;45.026;38.952;2024-03-23T10:32:17;6.15;;;2.90;;
83595;SDS011;73564;45.026;38.952;2024-03-23T10:34:43;6.18;;;2.17;;
83595;SDS011;73564;45.026;38.952;2024-03-23T10:37:10;8.23;;;2.47;;
83595;SDS011;73564;45.026;38.952;2024-03-23T10:39:40;9.13;;;2.47;;
83595;SDS011;73564;45.026;38.952;2024-03-23T10:42:07;9.48;;;2.03;;
83595;SDS011;73564;45.026;38.952;2024-03-23T10:44:34;6.00;;;2.00;;
83595;SDS011;73564;45.026;38.952;2024-03-23T10:47:03;5.97;;;2.03;;
83595;SDS011;73564;45.026;38.952;2024-03-23T10:49:33;5.65;;;2.25;;
83595;SDS011;73564;45.026;38.952;2024-03-23T10:52:04;4.63;;;2.03;;
83595;SDS011;73564;45.026;38.952;2024-03-23T10:54:31;4.40;;;1.75;;
83595;SDS011;73564;45.026;38.952;2024-03-23T11:00:06;4.75;;;1.73;;
83595;SDS011;73564;45.026;38.952;2024-03-23T11:02:34;4.43;;;1.80;;
83595;SDS011;73564;45.026;38.952;2024-03-23T11:04:59;3.40;;;1.67;;
83595;SDS011;73564;45.026;38.952;2024-03-23T11:09:55;6.57;;;1.98;;
83595;SDS011;73564;45.026;38.952;2024-03-23T11:17:24;4.05;;;1.88;;
83595;SDS011;73564;45.026;38.952;2024-03-23T11:23:07;3.38;;;1.70;;
83595;SDS011;73564;45.026;38.952;2024-03-23T11:27:56;4.53;;;2.05;;
83595;SDS011;73564;45.026;38.952;2024-03-23T11:30:24;7.40;;;2.20;;
83595;SDS011;73564;45.026;38.952;2024-03-23T11:32:51;5.05;;;1.75;;
83595;SDS011;73564;45.026;38.952;2024-03-23T11:40:32;5.72;;;1.83;;
83595;SDS011;73564;45.026;38.952;2024-03-23T11:42:59;3.92;;;1.65;;
83595;SDS011;73564;45.026;38.952;2024-03-23T11:45:33;5.68;;;1.63;;
83595;SDS011;73564;45.026;38.952;2024-03-23T11:50:35;3.90;;;1.85;;
83595;SDS011;73564;45.026;38.952;2024-03-23T11:53:21;4.15;;;1.60;;
83595;SDS011;73564;45.026;38.952;2024-03-23T11:55:52;4.25;;;1.90;;
83595;SDS011;73564;45.026;38.952;2024-03-23T11:58:26;4.85;;;1.35;;
83595;SDS011;73564;45.026;38.952;2024-03-23T12:00:56;4.93;;;1.63;;
83595;SDS011;73564;45.026;38.952;2024-03-23T12:03:25;3.35;;;1.58;;
83595;SDS011;73564;45.026;38.952;2024-03-23T12:05:57;4.97;;;1.63;;
83595;SDS011;73564;45.026;38.952;2024-03-23T12:08:31;5.57;;;1.75;;
83595;SDS011;73564;45.026;38.952;2024-03-23T12:11:12;4.65;;;1.33;;
83595;SDS011;73564;45.026;38.952;2024-03-23T12:13:40;5.40;;;1.63;;
83595;SDS011;73564;45.026;38.952;2024-03-23T12:16:17;4.45;;;1.63;;
83595;SDS011;73564;45.026;38.952;2024-03-23T12:18:48;3.65;;;1.63;;
83595;SDS011;73564;45.026;38.952;2024-03-23T12:21:15;5.97;;;1.80;;
83595;SDS011;73564;45.026;38.952;2024-03-23T12:23:42;5.30;;;1.83;;
83595;SDS011;73564;45.026;38.952;2024-03-23T12:26:10;3.65;;;1.65;;
83595;SDS011;73564;45.026;38.952;2024-03-23T12:28:37;4.95;;;1.77;;
83595;SDS011;73564;45.026;38.952;2024-03-23T12:31:02;4.05;;;1.40;;
83595;SDS011;73564;45.026;38.952;2024-03-23T12:33:28;2.17;;;1.10;;
83595;SDS011;73564;45.026;38.952;2024-03-23T12:35:54;3.78;;;1.42;;
83595;SDS011;73564;45.026;38.952;2024-03-23T12:38:20;5.57;;;1.48;;
83595;SDS011;73564;45.026;38.952;2024-03-23T12:40:46;4.15;;;1.48;;
83595;SDS011;73564;45.026;38.952;2024-03-23T12:43:15;3.30;;;1.33;;
83595;SDS011;73564;45.026;38.952;2024-03-23T12:45:46;5.45;;;1.52;;
83595;SDS011;73564;45.026;38.952;2024-03-23T12:48:12;2.55;;;1.30;;
83595;SDS011;73564;45.026;38.952;2024-03-23T12:50:38;5.03;;;1.63;;
83595;SDS011;73564;45.026;38.952;2024-03-23T12:53:04;6.25;;;1.88;;
83595;SDS011;73564;45.026;38.952;2024-03-23T12:55:30;6.28;;;1.35;;
83595;SDS011;73564;45.026;38.952;2024-03-23T12:57:55;3.75;;;1.40;;
83595;SDS011;73564;45.026;38.952;2024-03-23T13:00:21;5.10;;;1.42;;
83595;SDS011;73564;45.026;38.952;2024-03-23T13:02:47;5.03;;;1.45;;
83595;SDS011;73564;45.026;38.952;2024-03-23T13:05:13;2.88;;;1.08;;
83595;SDS011;73564;45.026;38.952;2024-03-23T13:07:39;4.65;;;1.27;;
83595;SDS011;73564;45.026;38.952;2024-03-23T13:10:07;4.43;;;1.45;;
83595;SDS011;73564;45.026;38.952;2024-03-23T13:12:34;3.92;;;1.30;;
83595;SDS011;73564;45.026;38.952;2024-03-23T13:15:00;2.95;;;1.00;;
83595;SDS011;73564;45.026;38.952;2024-03-23T13:17:26;4.53;;;1.48;;
83595;SDS011;73564;45.026;38.952;2024-03-23T13:19:52;3.30;;;1.10;;
83595;SDS011;73564;45.026;38.952;2024-03-23T13:22:21;2.65;;;1.10;;
83595;SDS011;73564;45.026;38.952;2024-03-23T13:24:47;3.33;;;1.00;;
83595;SDS011;73564;45.026;38.952;2024-03-23T13:27:13;3.83;;;1.60;;
83595;SDS011;73564;45.026;38.952;2024-03-23T13:29:39;3.15;;;0.95;;
83595;SDS011;73564;45.026;38.952;2024-03-23T13:32:05;4.82;;;1.65;;
83595;SDS011;73564;45.026;38.952;2024-03-23T13:34:31;4.78;;;1.50;;
83595;SDS011;73564;45.026;38.952;2024-03-23T13:36:58;6.15;;;1.80;;
83595;SDS011;73564;45.026;38.952;2024-03-23T13:39:24;3.88;;;1.40;;
83595;SDS011;73564;45.026;38.952;2024-03-23T13:41:52;3.33;;;1.58;;
83595;SDS011;73564;45.026;38.952;2024-03-23T13:44:18;2.80;;;1.20;;
83595;SDS011;73564;45.026;38.952;2024-03-23T13:46:44;3.97;;;1.40;;
83595;SDS011;73564;45.026;38.952;2024-03-23T13:49:19;4.93;;;1.70;;
83595;SDS011;73564;45.026;38.952;2024-03-23T13:51:53;5.07;;;1.85;;
83595;SDS011;73564;45.026;38.952;2024-03-23T13:54:20;4.93;;;1.50;;
83595;SDS011;73564;45.026;38.952;2024-03-23T13:56:53;4.88;;;2.10;;
83595;SDS011;73564;45.026;38.952;2024-03-23T13:59:22;4.93;;;1.60;;
83595;SDS011;73564;45.026;38.952;2024-03-23T14:01:48;5.32;;;1.80;;
83595;SDS011;73564;45.026;38.952;2024-03-23T14:04:15;8.25;;;1.80;;
83595;SDS011;73564;45.026;38.952;2024-03-23T14:06:45;4.10;;;1.60;;
83595;SDS011;73564;45.026;38.952;2024-03-23T14:09:11;5.50;;;2.00;;
83595;SDS011;73564;45.026;38.952;2024-03-23T14:11:37;3.10;;;1.23;;
83595;SDS011;73564;45.026;38.952;2024-03-23T14:14:03;3.15;;;1.30;;
83595;SDS011;73564;45.026;38.952;2024-03-23T14:16:30;3.40;;;1.55;;
83595;SDS011;73564;45.026;38.952;2024-03-23T14:18:56;2.88;;;1.42;;
83595;SDS011;73564;45.026;38.952;2024-03-23T14:21:22;6.20;;;1.52;;
83595;SDS011;73564;45.026;38.952;2024-03-23T14:23:48;3.78;;;1.45;;
83595;SDS011;73564;45.026;38.952;2024-03-23T14:26:15;4.20;;;1.60;;
83595;SDS011;73564;45.026;38.952;2024-03-23T14:28:41;4.75;;;1.60;;
83595;SDS011;73564;45.026;38.952;2024-03-23T14:33:36;4.25;;;1.77;;
83595;SDS011;73564;45.026;38.952;2024-03-23T14:36:03;4.13;;;1.40;;
83595;SDS011;73564;45.026;38.952;2024-03-23T14:38:29;3.47;;;1.45;;
83595;SDS011;73564;45.026;38.952;2024-03-23T14:40:57;5.07;;;2.30;;
83595;SDS011;73564;45.026;38.952;2024-03-23T14:43:24;3.55;;;1.60;;
83595;SDS011;73564;45.026;38.952;2024-03-23T14:46:09;4.72;;;1.70;;
83595;SDS011;73564;45.026;38.952;2024-03-23T14:48:39;4.30;;;1.83;;
83595;SDS011;73564;45.026;38.952;2024-03-23T14:51:05;4.20;;;1.38;;
83595;SDS011;73564;45.026;38.952;2024-03-23T14:53:32;4.70;;;1.88;;
83595;SDS011;73564;45.026;38.952;2024-03-23T14:55:59;3.53;;;1.83;;
83595;SDS011;73564;45.026;38.952;2024-03-23T14:58:26;5.57;;;1.73;;
83595;SDS011;73564;45.026;38.952;2024-03-23T15:00:52;6.90;;;2.05;;
83595;SDS011;73564;45.026;38.952;2024-03-23T15:03:18;5.22;;;1.85;;
83595;SDS011;73564;45.026;38.952;2024-03-23T15:06:02;6.53;;;2.03;;
83595;SDS011;73564;45.026;38.952;2024-03-23T15:08:28;3.60;;;1.20;;
83595;SDS011;73564;45.026;38.952;2024-03-23T15:10:54;8.00;;;3.55;;
83595;SDS011;73564;45.026;38.952;2024-03-23T15:13:20;19.45;;;6.22;;
83595;SDS011;73564;45.026;38.952;2024-03-23T15:15:48;26.00;;;8.90;;
83595;SDS011;73564;45.026;38.952;2024-03-23T15:18:14;33.35;;;9.52;;
83595;SDS011;73564;45.026;38.952;2024-03-23T15:20:40;26.70;;;9.02;;
83595;SDS011;73564;45.026;38.952;2024-03-23T15:23:07;24.42;;;9.05;;
83595;SDS011;73564;45.026;38.952;2024-03-23T15:25:34;24.95;;;7.80;;
83595;SDS011;73564;45.026;38.952;2024-03-23T15:27:59;24.77;;;8.43;;
83595;SDS011;73564;45.026;38.952;2024-03-23T15:30:26;23.63;;;7.75;;
83595;SDS011;73564;45.026;38.952;2024-03-23T15:32:52;18.80;;;6.20;;
83595;SDS011;73564;45.026;38.952;2024-03-23T15:35:18;15.65;;;5.82;;
83595;SDS011;73564;45.026;38.952;2024-03-23T15:37:46;11.10;;;4.68;;
83595;SDS011;73564;45.026;38.952;2024-03-23T15:40:12;10.13;;;4.05;;
83595;SDS011;73564;45.026;38.952;2024-03-23T15:42:38;11.48;;;3.20;;
83595;SDS011;73564;45.026;38.952;2024-03-23T15:45:06;11.00;;;3.78;;
83595;SDS011;73564;45.026;38.952;2024-03-23T15:47:33;10.52;;;3.95;;
83595;SDS011;73564;45.026;38.952;2024-03-23T15:52:25;11.88;;;3.35;;
83595;SDS011;73564;45.026;38.952;2024-03-23T15:54:51;9.57;;;3.55;;
83595;SDS011;73564;45.026;38.952;2024-03-23T15:57:17;10.48;;;3.20;;